createdAt,value
2018-08-25T00:00:52.919Z,100.00
2018-08-25T00:03:25.021Z,100.00
2018-08-25T00:05:57.128Z,100.00
2018-08-25T00:08:29.204Z,100.00
2018-08-25T00:11:01.319Z,100.00
2018-08-25T00:13:33.350Z,100.00
2018-08-25T00:16:05.425Z,100.00
2018-08-25T00:18:37.519Z,100.00
2018-08-25T00:21:09.634Z,100.00
2018-08-25T00:23:41.719Z,100.00
2018-08-25T00:26:13.881Z,100.00
2018-08-25T00:28:45.980Z,100.00
2018-08-25T00:31:23.103Z,100.00
2018-08-25T00:33:55.536Z,100.00
2018-08-25T00:36:27.635Z,100.00
2018-08-25T00:38:59.772Z,100.00
2018-08-25T00:41:31.971Z,100.00
2018-08-25T00:44:04.109Z,100.00
2018-08-25T00:46:36.217Z,100.00
2018-08-25T00:49:08.377Z,100.00
2018-08-25T00:51:40.530Z,100.00
2018-08-25T00:54:12.579Z,100.00
2018-08-25T00:56:44.766Z,100.00
2018-08-25T00:59:16.939Z,100.00
2018-08-25T01:01:49.072Z,100.00
2018-08-25T01:04:21.247Z,100.00
2018-08-25T01:06:53.396Z,100.00
2018-08-25T01:09:25.607Z,100.00
2018-08-25T01:11:57.773Z,100.00
2018-08-25T01:14:29.898Z,100.00
2018-08-25T01:17:02.051Z,100.00
2018-08-25T01:19:34.277Z,100.00
2018-08-25T01:22:06.520Z,100.00
2018-08-25T01:24:38.678Z,100.00
2018-08-25T01:27:10.901Z,100.00
2018-08-25T01:29:42.973Z,100.00
2018-08-25T01:32:15.104Z,100.00
2018-08-25T01:34:47.267Z,100.00
2018-08-25T01:37:19.347Z,100.00
2018-08-25T01:39:51.840Z,100.00
2018-08-25T01:42:23.961Z,100.00
2018-08-25T01:44:56.054Z,100.00
2018-08-25T01:47:28.183Z,100.00
2018-08-25T01:50:00.312Z,99.92
2018-08-25T01:52:32.480Z,99.12
2018-08-25T01:55:04.908Z,98.90
2018-08-25T01:57:37.008Z,98.77
2018-08-25T02:00:09.176Z,99.14
2018-08-25T02:02:41.376Z,98.80
2018-08-25T02:05:13.474Z,98.99
2018-08-25T02:07:45.519Z,98.88
2018-08-25T02:10:17.602Z,99.08
2018-08-25T02:12:49.714Z,99.30
2018-08-25T02:15:21.851Z,99.58
2018-08-25T02:17:54.008Z,100.00
2018-08-25T02:20:26.111Z,99.64
2018-08-25T02:22:58.176Z,100.00
2018-08-25T02:25:30.224Z,100.00
2018-08-25T02:28:02.291Z,99.90
2018-08-25T02:30:34.414Z,100.00
2018-08-25T02:33:06.527Z,100.00
2018-08-25T02:35:38.615Z,100.00
2018-08-25T02:38:10.734Z,100.00
2018-08-25T02:40:43.222Z,100.00
2018-08-25T02:43:15.332Z,100.00
2018-08-25T02:45:47.433Z,100.00
2018-08-25T02:48:20.589Z,100.00
2018-08-25T02:50:52.716Z,100.00
2018-08-25T02:53:25.054Z,100.00
2018-08-25T02:55:57.937Z,100.00
2018-08-25T02:58:30.096Z,100.00
2018-08-25T03:01:02.848Z,100.00
2018-08-25T03:03:35.097Z,100.00
2018-08-25T03:06:07.491Z,100.00
2018-08-25T03:08:39.674Z,100.00
2018-08-25T03:11:11.831Z,100.00
2018-08-25T03:13:44.308Z,100.00
2018-08-25T03:16:16.301Z,100.00
2018-08-25T03:18:48.403Z,100.00
2018-08-25T03:21:20.555Z,100.00
2018-08-25T03:23:53.003Z,100.00
2018-08-25T03:26:25.074Z,100.00
2018-08-25T03:28:57.467Z,100.00
2018-08-25T03:31:29.584Z,100.00
2018-08-25T03:34:01.678Z,100.00
2018-08-25T03:36:33.784Z,100.00
2018-08-25T03:39:07.820Z,100.00
2018-08-25T03:41:39.991Z,100.00
2018-08-25T03:44:12.140Z,100.00
2018-08-25T03:46:44.148Z,100.00
2018-08-25T03:49:16.263Z,100.00
2018-08-25T03:51:48.282Z,100.00
2018-08-25T03:54:20.367Z,100.00
2018-08-25T03:56:52.461Z,100.00
2018-08-25T03:59:24.595Z,100.00
2018-08-25T04:01:56.659Z,100.00
2018-08-25T04:04:28.823Z,100.00
2018-08-25T04:07:00.902Z,100.00
2018-08-25T04:09:33.020Z,100.00
2018-08-25T04:12:05.217Z,100.00
2018-08-25T04:14:37.324Z,100.00
2018-08-25T04:17:09.369Z,100.00
2018-08-25T04:19:41.437Z,100.00
2018-08-25T04:22:13.648Z,100.00
2018-08-25T04:24:45.708Z,100.00
2018-08-25T04:27:17.871Z,100.00
2018-08-25T04:29:49.963Z,100.00
2018-08-25T04:32:22.037Z,100.00
2018-08-25T04:34:54.153Z,100.00
2018-08-25T04:37:26.213Z,100.00
2018-08-25T04:39:58.292Z,100.00
2018-08-25T04:42:30.404Z,99.80
2018-08-25T04:45:02.477Z,98.77
2018-08-25T04:47:34.540Z,98.96
2018-08-25T04:50:06.605Z,98.64
2018-08-25T04:52:38.670Z,98.09
2018-08-25T04:55:10.773Z,98.17
2018-08-25T04:57:42.804Z,97.62
2018-08-25T05:00:14.915Z,97.22
2018-08-25T05:02:47.070Z,97.73
2018-08-25T05:05:19.121Z,96.99
2018-08-25T05:07:51.214Z,97.20
2018-08-25T05:10:23.251Z,97.07
2018-08-25T05:12:55.316Z,96.79
2018-08-25T05:15:27.479Z,96.42
2018-08-25T05:17:59.652Z,95.97
2018-08-25T05:20:31.804Z,95.72
2018-08-25T05:23:04.029Z,95.16
2018-08-25T05:25:36.143Z,94.69
2018-08-25T05:28:08.311Z,94.74
2018-08-25T05:30:40.376Z,94.48
2018-08-25T05:33:12.595Z,94.03
2018-08-25T05:35:44.719Z,93.32
2018-08-25T05:38:16.840Z,92.67
2018-08-25T05:40:48.954Z,93.00
2018-08-25T05:43:21.012Z,92.47
2018-08-25T05:45:53.207Z,91.67
2018-08-25T05:48:27.320Z,91.17
2018-08-25T05:50:59.557Z,90.92
2018-08-25T05:53:31.723Z,89.81
2018-08-25T05:56:03.931Z,89.68
2018-08-25T05:58:36.111Z,89.19
2018-08-25T06:01:08.637Z,89.01
2018-08-25T06:03:40.806Z,88.14
2018-08-25T06:06:12.903Z,87.55
2018-08-25T06:08:45.785Z,88.65
2018-08-25T06:11:18.052Z,87.48
2018-08-25T06:13:50.214Z,86.97
2018-08-25T06:16:22.364Z,86.66
2018-08-25T06:18:54.423Z,84.75
2018-08-25T06:21:26.506Z,85.13
2018-08-25T06:23:58.653Z,85.83
2018-08-25T06:26:30.856Z,84.59
2018-08-25T06:29:03.023Z,85.45
2018-08-25T06:31:35.199Z,84.46
2018-08-25T06:34:07.463Z,85.64
2018-08-25T06:36:39.921Z,84.57
2018-08-25T06:39:12.426Z,83.58
2018-08-25T06:41:44.576Z,83.34
2018-08-25T06:44:16.750Z,81.61
2018-08-25T06:46:48.980Z,80.50
2018-08-25T06:49:21.112Z,79.01
2018-08-25T06:51:53.642Z,78.92
2018-08-25T06:54:25.800Z,78.94
2018-08-25T06:56:57.923Z,76.62
2018-08-25T06:59:30.111Z,76.16
2018-08-25T07:02:02.199Z,74.42
2018-08-25T07:04:34.329Z,74.09
2018-08-25T07:07:06.684Z,72.98
2018-08-25T07:09:38.804Z,71.72
2018-08-25T07:12:10.879Z,71.91
2018-08-25T07:14:43.127Z,72.73
2018-08-25T07:17:15.195Z,72.81
2018-08-25T07:19:54.040Z,72.20
2018-08-25T07:22:26.122Z,71.27
2018-08-25T07:24:58.188Z,70.12
2018-08-25T07:27:30.304Z,70.15
2018-08-25T07:30:02.375Z,69.23
2018-08-25T07:32:34.545Z,68.07
2018-08-25T07:35:06.762Z,65.96
2018-08-25T07:37:38.826Z,66.35
2018-08-25T07:40:10.994Z,65.44
2018-08-25T07:42:43.067Z,64.40
2018-08-25T07:45:15.261Z,65.51
2018-08-25T07:47:47.271Z,63.74
2018-08-25T07:50:19.352Z,64.50
2018-08-25T07:52:51.416Z,64.15
2018-08-25T07:55:23.507Z,62.81
2018-08-25T07:57:55.655Z,62.91
2018-08-25T08:00:27.750Z,64.59
2018-08-25T08:02:59.873Z,65.69
2018-08-25T08:05:32.144Z,66.71
2018-08-25T08:08:04.222Z,67.06
2018-08-25T08:10:36.396Z,67.90
2018-08-25T08:13:08.495Z,68.61
2018-08-25T08:15:40.602Z,67.87
2018-08-25T08:18:13.735Z,67.37
2018-08-25T08:20:45.757Z,66.21
2018-08-25T08:23:17.850Z,66.00
2018-08-25T08:25:49.985Z,65.95
2018-08-25T08:28:22.253Z,64.40
2018-08-25T08:30:54.381Z,64.14
2018-08-25T08:33:26.471Z,63.91
2018-08-25T08:35:58.589Z,61.56
2018-08-25T08:38:33.376Z,61.68
2018-08-25T08:41:05.607Z,62.54
2018-08-25T08:43:37.802Z,62.82
2018-08-25T08:46:12.084Z,62.07
2018-08-25T08:48:47.985Z,62.66
2018-08-25T08:51:20.440Z,59.31
2018-08-25T08:53:52.543Z,59.99
2018-08-25T08:56:24.729Z,59.17
2018-08-25T08:58:56.963Z,58.39
2018-08-25T09:01:29.379Z,58.63
2018-08-25T09:04:01.508Z,60.68
2018-08-25T09:06:33.784Z,60.09
2018-08-25T09:09:08.196Z,57.87
2018-08-25T09:11:40.449Z,55.97
2018-08-25T09:14:12.457Z,58.28
2018-08-25T09:16:44.590Z,58.92
2018-08-25T09:19:16.752Z,58.93
2018-08-25T09:21:49.003Z,57.85
2018-08-25T09:24:21.313Z,57.52
2018-08-25T09:26:53.571Z,57.41
2018-08-25T09:29:25.677Z,58.34
2018-08-25T09:31:57.820Z,58.78
2018-08-25T09:34:29.911Z,57.74
2018-08-25T09:37:02.025Z,57.26
2018-08-25T09:39:34.022Z,57.20
2018-08-25T09:42:10.716Z,55.81
2018-08-25T09:44:42.872Z,55.25
2018-08-25T09:47:15.047Z,52.94
2018-08-25T09:49:47.125Z,52.25
2018-08-25T09:52:19.192Z,53.95
2018-08-25T09:54:51.304Z,54.92
2018-08-25T09:57:23.451Z,54.20
2018-08-25T09:59:55.576Z,55.19
2018-08-25T10:02:27.766Z,53.94
2018-08-25T10:04:59.937Z,51.66
2018-08-25T10:07:32.079Z,52.48
2018-08-25T10:10:05.135Z,52.33
2018-08-25T10:12:38.294Z,50.30
2018-08-25T10:15:10.440Z,50.92
2018-08-25T10:17:43.530Z,51.57
2018-08-25T10:20:15.603Z,49.55
2018-08-25T10:22:47.693Z,51.18
2018-08-25T10:25:19.830Z,50.62
2018-08-25T10:27:51.999Z,51.63
2018-08-25T10:30:24.170Z,53.96
2018-08-25T10:32:56.767Z,52.67
2018-08-25T10:35:29.223Z,53.01
2018-08-25T10:38:01.342Z,54.20
2018-08-25T10:40:33.454Z,52.38
2018-08-25T10:43:05.690Z,51.49
2018-08-25T10:45:37.845Z,53.09
2018-08-25T10:48:10.170Z,53.06
2018-08-25T10:50:42.151Z,52.23
2018-08-25T10:53:14.240Z,52.86
2018-08-25T10:55:46.353Z,55.13
2018-08-25T10:58:18.562Z,52.36
2018-08-25T11:00:50.787Z,51.74
2018-08-25T11:03:22.858Z,52.82
2018-08-25T11:05:55.042Z,53.88
2018-08-25T11:08:27.132Z,53.60
2018-08-25T11:10:59.242Z,54.45
2018-08-25T11:13:32.308Z,52.42
2018-08-25T11:16:04.501Z,53.93
2018-08-25T11:18:37.277Z,51.28
2018-08-25T11:21:09.355Z,48.57
2018-08-25T11:23:41.553Z,49.39
2018-08-25T11:26:13.571Z,49.67
2018-08-25T11:28:45.821Z,46.60
2018-08-25T11:31:17.891Z,48.25
2018-08-25T11:33:50.006Z,49.06
2018-08-25T11:36:22.108Z,49.38
2018-08-25T11:38:54.617Z,49.67
2018-08-25T11:41:26.782Z,52.27
2018-08-25T11:43:59.135Z,52.48
2018-08-25T11:46:31.138Z,54.06
2018-08-25T11:49:03.277Z,54.34
2018-08-25T11:51:35.384Z,59.09
2018-08-25T11:54:07.621Z,59.65
2018-08-25T11:56:40.401Z,66.07
2018-08-25T11:59:12.588Z,65.57
2018-08-25T12:01:44.766Z,69.16
2018-08-25T12:04:16.880Z,73.49
2018-08-25T12:06:48.985Z,85.00
2018-08-25T12:09:22.141Z,90.14
2018-08-25T12:11:54.124Z,91.49
2018-08-25T12:14:26.200Z,93.67
2018-08-25T12:16:58.260Z,96.54
2018-08-25T12:19:30.438Z,95.48
2018-08-25T12:22:02.626Z,96.94
2018-08-25T12:24:34.682Z,97.38
2018-08-25T12:27:06.806Z,97.50
2018-08-25T12:29:38.822Z,92.01
2018-08-25T12:32:10.873Z,88.61
2018-08-25T12:37:19.343Z,90.17
2018-08-25T12:39:51.336Z,87.16
2018-08-25T12:42:23.288Z,88.59
2018-08-25T12:44:55.243Z,84.37
2018-08-25T12:47:27.209Z,87.08
2018-08-25T12:49:59.159Z,86.15
2018-08-25T12:52:31.142Z,86.17
2018-08-25T12:55:03.123Z,87.03
2018-08-25T12:57:35.078Z,87.36
2018-08-25T13:00:07.126Z,85.40
2018-08-25T13:02:39.157Z,84.83
2018-08-25T13:05:11.118Z,83.90
2018-08-25T13:07:43.079Z,88.48
2018-08-25T13:10:15.024Z,81.56
2018-08-25T13:12:46.979Z,82.04
2018-08-25T13:15:18.956Z,79.23
2018-08-25T13:17:50.927Z,82.91
2018-08-25T13:20:22.923Z,79.38
2018-08-25T13:22:54.899Z,76.81
2018-08-25T13:25:27.292Z,76.35
2018-08-25T13:27:59.297Z,75.67
2018-08-25T13:30:31.271Z,70.52
2018-08-25T13:33:03.242Z,70.90
2018-08-25T13:35:35.215Z,72.26
2018-08-25T13:38:07.337Z,69.51
2018-08-25T13:40:39.332Z,69.37
2018-08-25T13:43:11.339Z,67.58
2018-08-25T13:45:43.328Z,66.72
2018-08-25T13:48:15.308Z,64.87
2018-08-25T13:50:47.298Z,66.70
2018-08-25T13:53:19.315Z,67.53
2018-08-25T13:55:51.361Z,66.77
2018-08-25T13:58:23.462Z,65.65
2018-08-25T14:00:55.354Z,67.15
2018-08-25T14:03:27.354Z,64.08
2018-08-25T14:05:59.340Z,65.38
2018-08-25T14:08:31.402Z,64.00
2018-08-25T14:11:03.341Z,66.80
2018-08-25T14:13:35.370Z,66.71
2018-08-25T14:16:07.613Z,66.91
2018-08-25T14:18:39.549Z,69.71
2018-08-25T14:21:11.534Z,69.43
2018-08-25T14:23:43.513Z,69.47
2018-08-25T14:26:15.476Z,67.61
2018-08-25T14:28:47.450Z,70.09
2018-08-25T14:31:19.439Z,70.23
2018-08-25T14:33:51.431Z,70.71
2018-08-25T14:36:23.485Z,70.79
2018-08-25T14:38:55.434Z,72.97
2018-08-25T14:41:27.430Z,73.28
2018-08-25T14:43:59.396Z,73.99
2018-08-25T14:46:31.384Z,73.50
2018-08-25T14:49:03.591Z,71.19
2018-08-25T14:51:35.543Z,70.49
2018-08-25T14:54:07.551Z,69.82
2018-08-25T14:56:39.508Z,70.35
2018-08-25T14:59:11.581Z,68.43
2018-08-25T15:01:43.594Z,67.76
2018-08-25T15:04:15.539Z,66.31
2018-08-25T15:06:47.502Z,67.94
2018-08-25T15:09:19.484Z,66.26
2018-08-25T15:11:51.480Z,65.56
2018-08-25T15:14:23.455Z,66.27
2018-08-25T15:16:55.414Z,67.85
2018-08-25T15:19:27.372Z,65.90
2018-08-25T15:21:59.334Z,66.05
2018-08-25T15:24:31.307Z,69.26
2018-08-25T15:27:03.408Z,71.03
2018-08-25T15:29:42.004Z,71.05
2018-08-25T15:32:13.967Z,72.47
2018-08-25T15:34:45.899Z,71.57
2018-08-25T15:37:17.863Z,69.71
2018-08-25T15:39:49.835Z,70.16
2018-08-25T15:42:21.795Z,69.92
2018-08-25T15:44:53.734Z,70.07
2018-08-25T15:47:25.926Z,70.20
2018-08-25T15:49:57.870Z,69.63
2018-08-25T15:52:29.869Z,69.33
2018-08-25T15:55:01.819Z,68.19
2018-08-25T15:57:33.783Z,68.62
2018-08-25T16:00:06.680Z,68.88
2018-08-25T16:02:38.642Z,69.05
2018-08-25T16:05:10.650Z,69.28
2018-08-25T16:07:42.663Z,69.10
2018-08-25T16:10:14.691Z,69.29
2018-08-25T16:12:46.775Z,69.13
2018-08-25T16:15:18.913Z,69.96
2018-08-25T16:17:50.893Z,69.88
2018-08-25T16:20:22.855Z,70.79
2018-08-25T16:22:54.827Z,71.71
2018-08-25T16:25:26.807Z,70.17
2018-08-25T16:27:58.905Z,70.92
2018-08-25T16:30:30.843Z,70.49
2018-08-25T16:33:02.879Z,71.21
2018-08-25T16:35:34.848Z,72.20
2018-08-25T16:38:07.094Z,72.45
2018-08-25T16:40:39.098Z,71.94
2018-08-25T16:43:11.223Z,72.65
2018-08-25T16:45:43.174Z,73.19
2018-08-25T16:48:15.134Z,73.68
2018-08-25T16:50:47.090Z,74.40
2018-08-25T16:53:19.056Z,73.15
2018-08-25T16:55:52.109Z,73.83
2018-08-25T16:58:24.206Z,73.69
2018-08-25T17:00:56.166Z,72.89
2018-08-25T17:03:28.127Z,73.86
2018-08-25T17:06:00.127Z,73.03
2018-08-25T17:08:32.096Z,74.29
2018-08-25T17:11:04.078Z,74.91
2018-08-25T17:13:36.039Z,74.98
2018-08-25T17:16:08.022Z,75.46
2018-08-25T17:18:40.040Z,75.63
2018-08-25T17:21:12.066Z,76.11
2018-08-25T17:23:43.972Z,77.19
2018-08-25T17:26:15.974Z,75.88
2018-08-25T17:28:47.915Z,76.66
2018-08-25T17:31:19.854Z,77.51
2018-08-25T17:33:51.832Z,77.34
2018-08-25T17:36:23.848Z,77.32
2018-08-25T17:38:55.788Z,78.41
2018-08-25T17:41:27.878Z,79.03
2018-08-25T17:43:59.820Z,78.96
2018-08-25T17:46:31.823Z,79.03
2018-08-25T17:49:03.905Z,79.20
2018-08-25T17:51:35.868Z,79.07
2018-08-25T17:54:08.152Z,79.48
2018-08-25T17:56:40.381Z,81.29
2018-08-25T17:59:12.402Z,81.49
2018-08-25T18:01:44.352Z,81.53
2018-08-25T18:04:16.306Z,83.30
2018-08-25T18:06:48.263Z,82.75
2018-08-25T18:09:20.202Z,83.09
2018-08-25T18:11:52.147Z,82.07
2018-08-25T18:14:24.199Z,82.91
2018-08-25T18:16:56.227Z,83.65
2018-08-25T18:19:28.351Z,82.10
2018-08-25T18:22:00.311Z,82.42
2018-08-25T18:24:32.234Z,82.17
2018-08-25T18:27:04.319Z,82.53
2018-08-25T18:29:36.261Z,82.99
2018-08-25T18:32:08.273Z,83.87
2018-08-25T18:34:40.202Z,82.73
2018-08-25T18:37:12.231Z,82.92
2018-08-25T18:39:44.194Z,83.13
2018-08-25T18:42:16.198Z,83.05
2018-08-25T18:44:48.116Z,83.56
2018-08-25T18:47:20.107Z,83.76
2018-08-25T18:49:52.158Z,83.70
2018-08-25T18:52:24.118Z,83.58
2018-08-25T18:54:56.160Z,83.95
2018-08-25T18:57:28.018Z,85.03
2018-08-25T19:00:00.011Z,84.97
2018-08-25T19:02:31.977Z,85.41
2018-08-25T19:05:03.938Z,85.78
2018-08-25T19:07:35.895Z,86.13
2018-08-25T19:10:07.862Z,86.54
2018-08-25T19:12:39.813Z,86.79
2018-08-25T19:15:11.755Z,86.35
2018-08-25T19:17:43.696Z,87.19
2018-08-25T19:20:15.651Z,87.08
2018-08-25T19:22:47.584Z,87.80
2018-08-25T19:25:19.574Z,87.38
2018-08-25T19:27:51.552Z,87.60
2018-08-25T19:30:23.525Z,87.47
2018-08-25T19:32:55.512Z,88.53
2018-08-25T19:35:34.265Z,88.43
2018-08-25T19:38:06.229Z,88.31
2018-08-25T19:40:38.203Z,88.76
2018-08-25T19:43:10.163Z,88.44
2018-08-25T19:45:42.244Z,88.28
2018-08-25T19:48:14.239Z,89.12
2018-08-25T19:50:46.231Z,88.59
2018-08-25T19:53:18.206Z,89.58
2018-08-25T19:55:50.185Z,89.72
2018-08-25T19:58:22.211Z,90.34
2018-08-25T20:00:54.213Z,91.34
2018-08-25T20:03:26.186Z,91.41
2018-08-25T20:05:58.190Z,91.18
2018-08-25T20:08:30.182Z,91.39
2018-08-25T20:11:02.178Z,91.81
2018-08-25T20:13:34.180Z,91.78
2018-08-25T20:16:06.150Z,91.27
2018-08-25T20:18:38.139Z,91.44
2018-08-25T20:21:10.110Z,91.80
2018-08-25T20:23:42.163Z,92.00
2018-08-25T20:26:14.139Z,92.39
2018-08-25T20:28:46.090Z,92.55
2018-08-25T20:31:18.176Z,92.39
2018-08-25T20:33:50.186Z,93.30
2018-08-25T20:36:22.172Z,93.04
2018-08-25T20:38:54.142Z,93.54
2018-08-25T20:41:26.122Z,93.59
2018-08-25T20:43:58.126Z,93.20
2018-08-25T20:46:30.115Z,93.56
2018-08-25T20:49:04.305Z,94.37
2018-08-25T20:51:36.274Z,94.26
2018-08-25T20:54:08.276Z,94.77
2018-08-25T20:56:40.251Z,94.21
2018-08-25T20:59:12.314Z,94.07
2018-08-25T21:01:44.301Z,94.15
2018-08-25T21:04:16.274Z,95.05
2018-08-25T21:06:48.252Z,95.04
2018-08-25T21:09:20.222Z,95.42
2018-08-25T21:11:52.195Z,95.52
2018-08-25T21:14:24.205Z,95.32
2018-08-25T21:16:56.179Z,95.27
2018-08-25T21:19:28.208Z,96.00
2018-08-25T21:22:00.189Z,95.16
2018-08-25T21:24:32.144Z,95.05
2018-08-25T21:27:04.170Z,94.57
2018-08-25T21:29:36.200Z,94.54
2018-08-25T21:32:08.178Z,94.31
2018-08-25T21:34:40.146Z,94.68
2018-08-25T21:37:12.110Z,94.35
2018-08-25T21:39:44.103Z,94.36
2018-08-25T21:42:16.210Z,94.67
2018-08-25T21:44:48.175Z,94.84
2018-08-25T21:47:20.136Z,95.34
2018-08-25T21:49:52.082Z,95.42
2018-08-25T21:52:24.073Z,95.20
2018-08-25T21:54:56.030Z,95.39
2018-08-25T21:57:27.983Z,96.16
2018-08-25T22:00:00.043Z,96.22
2018-08-25T22:02:32.078Z,96.87
2018-08-25T22:05:04.195Z,96.97
2018-08-25T22:07:36.252Z,96.81
2018-08-25T22:10:08.248Z,97.43
2018-08-25T22:12:40.225Z,96.82
2018-08-25T22:15:12.214Z,97.16
2018-08-25T22:17:44.167Z,96.75
2018-08-25T22:20:16.110Z,96.87
2018-08-25T22:22:48.090Z,97.23
2018-08-25T22:25:20.040Z,97.68
2018-08-25T22:27:52.027Z,97.21
2018-08-25T22:30:23.996Z,97.28
2018-08-25T22:32:56.062Z,97.32
2018-08-25T22:35:28.381Z,97.26
2018-08-25T22:38:00.385Z,97.17
2018-08-25T22:40:32.359Z,98.10
2018-08-25T22:43:04.567Z,97.92
2018-08-25T22:45:36.559Z,97.64
2018-08-25T22:48:08.566Z,98.20
2018-08-25T22:50:40.544Z,98.73
2018-08-25T22:53:12.503Z,99.15
2018-08-25T22:55:44.479Z,99.17
2018-08-25T22:58:16.452Z,99.45
2018-08-25T23:00:48.426Z,100.00
2018-08-25T23:03:20.443Z,99.56
2018-08-25T23:05:52.393Z,99.84
2018-08-25T23:08:24.395Z,99.50
2018-08-25T23:10:56.361Z,99.84
2018-08-25T23:13:28.372Z,100.00
2018-08-25T23:16:00.348Z,100.00
2018-08-25T23:18:32.327Z,99.93
2018-08-25T23:21:04.263Z,99.95
2018-08-25T23:23:36.306Z,100.00
2018-08-25T23:26:08.383Z,100.00
2018-08-25T23:28:40.355Z,100.00
2018-08-25T23:31:12.339Z,100.00
2018-08-25T23:33:44.306Z,100.00
2018-08-25T23:36:16.287Z,100.00
2018-08-25T23:38:48.298Z,100.00
2018-08-25T23:41:20.273Z,100.00
2018-08-25T23:43:52.263Z,100.00
2018-08-25T23:46:24.224Z,100.00
2018-08-25T23:48:56.203Z,100.00
2018-08-25T23:51:28.160Z,100.00
2018-08-25T23:54:00.154Z,100.00
2018-08-25T23:56:32.303Z,100.00
2018-08-25T23:59:04.338Z,100.00
